createdAt,value
2024-05-09T00:00:41.773Z,565.25165
2024-05-09T00:05:44.196Z,602.93895
2024-05-09T00:10:46.099Z,501.96535
2024-05-09T00:15:47.536Z,386.59245
2024-05-09T00:20:48.973Z,375.62985
2024-05-09T00:25:50.515Z,495.3877
2024-05-09T00:30:51.959Z,496.51355
2024-05-09T00:35:53.436Z,521.6384
2024-05-09T00:40:54.930Z,494.97285
2024-05-09T00:45:56.306Z,334.68345
2024-05-09T00:50:57.795Z,316.25445
2024-05-09T00:55:59.319Z,386.53295
2024-05-09T01:01:00.860Z,389.67355
2024-05-09T01:06:02.338Z,393.11035
2024-05-09T01:11:03.946Z,366.91885
2024-05-09T01:16:05.481Z,348.4899
2024-05-09T01:21:06.929Z,322.29825
2024-05-09T01:26:08.483Z,306.06185
2024-05-09T01:31:09.943Z,284.1961
2024-05-09T01:36:11.264Z,247.3383
2024-05-09T01:41:12.739Z,102.4557
2024-05-09T01:46:14.159Z,90.609
2024-05-09T01:51:15.622Z,97.61625
2024-05-09T01:56:17.263Z,100.05025
2024-05-09T02:01:18.746Z,92.1569
2024-05-09T02:06:20.232Z,88.54205
2024-05-09T02:11:21.738Z,87.2509
2024-05-09T02:16:23.287Z,78.5646
2024-05-09T02:21:24.683Z,71.04015
2024-05-09T02:26:26.250Z,64.67755
2024-05-09T02:31:27.834Z,56.1757
2024-05-09T02:36:29.196Z,53.1142
2024-05-09T02:41:30.713Z,44.7968
2024-05-09T02:46:32.149Z,41.7353
2024-05-09T02:51:33.508Z,30.1168
2024-05-09T02:56:35.132Z,22.59235
2024-05-09T03:01:36.739Z,17.0227
2024-05-09T03:06:38.193Z,10.47565
2024-05-09T03:11:39.988Z,8.39155
2024-05-09T03:16:41.755Z,5.33005
2024-05-09T03:21:43.242Z,3.3184
2024-05-09T03:26:44.736Z,2.25175
2024-05-09T03:31:46.303Z,1.6592
2024-05-09T03:36:47.753Z,0.5333
2024-05-09T03:41:49.174Z,1.16185
2024-05-09T03:46:50.629Z,0
2024-05-09T03:51:52.176Z,0
2024-05-09T03:56:53.590Z,0
2024-05-09T04:01:55.239Z,0
2024-05-09T04:06:56.704Z,0
2024-05-09T04:11:58.635Z,0
2024-05-09T04:17:00.248Z,0
2024-05-09T04:22:01.747Z,0
2024-05-09T04:27:03.162Z,0
2024-05-09T04:32:04.708Z,0
2024-05-09T04:37:06.269Z,0
2024-05-09T04:42:07.917Z,0
2024-05-09T04:47:09.391Z,0
2024-05-09T04:52:10.791Z,0
2024-05-09T04:57:12.390Z,0
2024-05-09T05:02:14.437Z,0
2024-05-09T05:07:17.154Z,0
2024-05-09T05:12:19.087Z,0
2024-05-09T05:17:20.905Z,0
2024-05-09T05:22:22.495Z,0
2024-05-09T05:27:24.010Z,0
2024-05-09T05:32:27.961Z,0
2024-05-09T05:37:29.827Z,0
2024-05-09T05:42:31.460Z,0
2024-05-09T05:47:32.980Z,0
2024-05-09T05:52:34.498Z,0
2024-05-09T05:57:36.108Z,0
2024-05-09T06:02:37.670Z,0
2024-05-09T06:07:39.114Z,0
2024-05-09T06:12:40.543Z,0
2024-05-09T06:17:42.042Z,0
2024-05-09T06:22:43.493Z,0
2024-05-09T06:27:44.872Z,0
2024-05-09T06:32:46.654Z,0
2024-05-09T06:37:48.211Z,0
2024-05-09T06:42:49.608Z,0
2024-05-09T06:47:51.303Z,0
2024-05-09T06:52:52.941Z,0
2024-05-09T06:57:54.309Z,0
2024-05-09T07:02:55.924Z,0
2024-05-09T07:07:57.516Z,0
2024-05-09T07:12:59.134Z,0
2024-05-09T07:18:00.731Z,0
2024-05-09T07:23:02.383Z,0
2024-05-09T07:28:03.912Z,0
2024-05-09T07:33:05.618Z,0
2024-05-09T07:38:07.286Z,0
2024-05-09T07:43:09.132Z,0
2024-05-09T07:53:37.615Z,0
2024-05-09T07:58:44.895Z,0
2024-05-09T08:03:46.553Z,0
2024-05-09T08:08:48.269Z,0
2024-05-09T08:13:49.667Z,0
2024-05-09T08:18:51.163Z,0
2024-05-09T08:23:52.695Z,0
2024-05-09T08:28:54.247Z,0
2024-05-09T08:33:55.819Z,0
2024-05-09T08:38:57.259Z,0
2024-05-09T08:43:58.657Z,0
2024-05-09T08:49:00.472Z,0
2024-05-09T08:54:02.150Z,0
2024-05-09T08:59:03.588Z,0
2024-05-09T09:04:05.213Z,0
2024-05-09T09:09:06.898Z,0
2024-05-09T09:14:08.348Z,0
2024-05-09T09:19:09.966Z,0
2024-05-09T09:24:11.547Z,0
2024-05-09T09:29:12.909Z,0
2024-05-09T09:34:14.610Z,0
2024-05-09T09:39:17.335Z,0
2024-05-09T09:44:18.810Z,0
2024-05-09T09:49:20.342Z,0
2024-05-09T09:54:21.803Z,0
2024-05-09T09:59:23.467Z,0
2024-05-09T10:04:24.955Z,0
2024-05-09T10:09:26.490Z,0
2024-05-09T10:14:27.871Z,0
2024-05-09T10:19:29.437Z,0
2024-05-09T10:24:31.057Z,0
2024-05-09T10:29:32.489Z,0
2024-05-09T10:34:34.104Z,0
2024-05-09T10:39:35.590Z,0
2024-05-09T10:44:37.019Z,0
2024-05-09T10:49:38.420Z,0
2024-05-09T10:54:39.969Z,0
2024-05-09T10:59:41.563Z,0
2024-05-09T11:04:43.100Z,0
2024-05-09T11:09:45.049Z,0
2024-05-09T11:14:46.804Z,0
2024-05-09T11:19:48.344Z,0
2024-05-09T11:24:49.882Z,0
2024-05-09T11:29:51.320Z,0
2024-05-09T11:34:52.862Z,0
2024-05-09T11:39:54.407Z,0
2024-05-09T11:44:55.940Z,0
2024-05-09T11:49:57.442Z,1.16185
2024-05-09T11:54:59.225Z,0.47405
2024-05-09T12:00:00.690Z,0.9481
2024-05-09T12:05:02.233Z,2.1925
2024-05-09T12:10:06.214Z,3.79245
2024-05-09T12:15:09.592Z,5.74795
2024-05-09T12:20:20.992Z,7.82195
2024-05-09T12:25:27.258Z,10.2515
2024-05-09T12:30:35.986Z,12.97735
2024-05-09T12:35:41.730Z,18.1294
2024-05-09T12:40:44.806Z,26.4468
2024-05-09T12:45:46.528Z,31.64755
2024-05-09T12:50:48.279Z,39.7805
2024-05-09T12:55:56.671Z,42.65755
2024-05-09T13:01:01.829Z,44.50205
2024-05-09T13:06:03.410Z,97.1223
2024-05-09T13:11:04.863Z,71.10845
2024-05-09T13:16:06.493Z,69.7456
2024-05-09T13:21:08.020Z,83.55245
2024-05-09T13:26:09.422Z,92.678
2024-05-09T13:31:10.836Z,110.45505
2024-05-09T13:36:12.282Z,131.4912
2024-05-09T13:41:13.936Z,139.2538
2024-05-09T13:46:15.494Z,151.8162
2024-05-09T13:51:16.921Z,165.50455
2024-05-09T13:56:18.285Z,188.91125
2024-05-09T14:01:20.076Z,180.2004
2024-05-09T14:06:21.522Z,193.8889
2024-05-09T14:11:22.998Z,218.4212
2024-05-09T14:16:24.674Z,237.2058
2024-05-09T14:21:26.123Z,226.8948
2024-05-09T14:26:27.583Z,234.4796
2024-05-09T14:31:29.150Z,239.2202
2024-05-09T14:36:30.759Z,240.0499
2024-05-09T14:41:32.201Z,241.94615
2024-05-09T14:46:33.618Z,256.40515
2024-05-09T14:51:35.255Z,284.4934
2024-05-09T14:56:36.730Z,295.4561
2024-05-09T15:01:38.304Z,278.38975
2024-05-09T15:06:39.875Z,277.7376
2024-05-09T15:11:41.584Z,294.74425
2024-05-09T15:16:43.015Z,312.7581
2024-05-09T15:21:44.539Z,364.66735
2024-05-09T15:26:46.053Z,411.6583
2024-05-09T15:31:47.530Z,424.3393
2024-05-09T15:36:49.020Z,451.5975
2024-05-09T15:41:50.723Z,479.86305
2024-05-09T15:46:52.308Z,521.58025
2024-05-09T15:51:58.978Z,535.9797
2024-05-09T15:57:00.477Z,550.7939
2024-05-09T16:02:01.994Z,558.14185
2024-05-09T16:07:03.606Z,567.8599
2024-05-09T16:12:05.431Z,559.6823
2024-05-09T16:17:07.941Z,581.07405
2024-05-09T16:22:09.618Z,600.6288
2024-05-09T16:27:11.060Z,608.15445
2024-05-09T16:32:12.501Z,621.6057
2024-05-09T16:37:14.699Z,624.5092
2024-05-09T16:42:16.120Z,622.8499
2024-05-09T16:47:17.493Z,618.761
2024-05-09T16:52:19.036Z,626.28665
2024-05-09T16:57:20.531Z,636.36045
2024-05-09T17:02:22.128Z,633.27895
2024-05-09T17:07:23.822Z,634.8789
2024-05-09T17:12:25.342Z,640.74545
2024-05-09T17:17:27.121Z,642.64165
2024-05-09T17:22:28.715Z,643.8268
2024-05-09T17:27:30.283Z,634.1679
2024-05-09T17:32:31.849Z,642.70075
2024-05-09T17:37:33.325Z,639.56005
2024-05-09T17:42:34.846Z,648.33005
2024-05-09T17:47:36.471Z,647.85605
2024-05-09T17:52:38.215Z,628.479
2024-05-09T17:57:39.688Z,654.5519
2024-05-09T18:02:41.867Z,631.9159
2024-05-09T18:07:43.451Z,676.83265
2024-05-09T18:12:45.215Z,659.41125
2024-05-09T18:17:47.144Z,659.58895
2024-05-09T18:22:48.800Z,637.1899
2024-05-09T18:27:50.540Z,697.21705
2024-05-09T18:32:52.095Z,683.41005
2024-05-09T18:37:53.633Z,659.94425
2024-05-09T18:42:55.211Z,693.12795
2024-05-09T18:47:56.886Z,687.14295
2024-05-09T18:52:59.229Z,682.4616
2024-05-09T18:58:01.124Z,679.14305
2024-05-09T19:03:02.993Z,685.4243
2024-05-09T19:08:04.540Z,681.57265
2024-05-09T19:13:10.402Z,686.3132
2024-05-09T19:18:15.423Z,689.86865
2024-05-09T19:23:17.086Z,699.82395
2024-05-09T19:28:18.760Z,700.8906
2024-05-09T19:33:20.491Z,708.35705
2024-05-09T19:38:21.985Z,704.3277
2024-05-09T19:43:23.374Z,714.87535
2024-05-09T19:48:24.912Z,695.37975
2024-05-09T19:53:26.540Z,651.35185
2024-05-09T19:58:28.019Z,626.81945
2024-05-09T20:03:29.629Z,683.35035
2024-05-09T20:08:31.087Z,703.7939
2024-05-09T20:13:32.690Z,732.8891
2024-05-09T20:18:34.221Z,759.14005
2024-05-09T20:23:35.753Z,739.22995
2024-05-09T20:28:37.343Z,706.22395
2024-05-09T20:33:38.980Z,690.3431
2024-05-09T20:38:40.467Z,693.0691
2024-05-09T20:43:41.876Z,768.08825
2024-05-09T20:48:43.392Z,760.97755
2024-05-09T20:53:45.054Z,747.88185
2024-05-09T20:58:46.482Z,813.89405
2024-05-09T21:03:48.015Z,837.7746
2024-05-09T21:08:49.706Z,839.37465
2024-05-09T21:13:51.076Z,838.071
2024-05-09T21:18:52.511Z,838.84135
2024-05-09T21:23:53.840Z,845.0635
2024-05-09T21:28:55.297Z,849.3893
2024-05-09T21:33:56.984Z,849.74485
2024-05-09T21:38:58.563Z,847.78945
2024-05-09T21:44:00.081Z,845.35995
2024-05-09T21:49:01.860Z,837.7159
2024-05-09T21:54:03.239Z,832.73835
2024-05-09T21:59:04.765Z,828.5312
2024-05-09T22:04:06.505Z,821.47965
2024-05-09T22:09:07.984Z,810.22085
2024-05-09T22:14:09.439Z,805.9543
2024-05-09T22:19:10.955Z,797.36205
2024-05-09T22:24:12.491Z,788.1179
2024-05-09T22:29:13.960Z,775.79245
2024-05-09T22:34:15.696Z,770.874
2024-05-09T22:39:17.158Z,762.10405
2024-05-09T22:44:18.948Z,753.63035
2024-05-09T22:49:20.559Z,746.9935
2024-05-09T22:54:21.989Z,738.1049
2024-05-09T22:59:23.457Z,727.7942
2024-05-09T23:04:24.993Z,718.13525
2024-05-09T23:09:26.496Z,709.48375
2024-05-09T23:14:28.179Z,695.79535
2024-05-09T23:19:29.746Z,685.9586
2024-05-09T23:24:31.193Z,672.448
2024-05-09T23:29:32.701Z,660.8336
2024-05-09T23:34:34.180Z,651.5303
2024-05-09T23:39:35.906Z,640.5085
2024-05-09T23:44:37.386Z,628.65705
2024-05-09T23:49:39.176Z,618.28705
2024-05-09T23:54:40.746Z,606.9097
2024-05-09T23:59:42.196Z,594.4064
